Time;durP1;ratioP1;P1;durP2;ratioP2;P2;SDS_P1;SDS_P2;PMS_P1;PMS_P2;Temp;Humidity;BMP_temperature;BMP_pressure;BME280_temperature;BME280_humidity;BME280_pressure;Samples;Min_cycle;Max_cycle;Signal;HPM_P1;HPM_P2
2022/04/01 00:01:40;;;;;;;78.03;22.60;;;14.40;99.90;;;;;;4710131;30;20049;-78
2022/04/01 00:04:08;;;;;;;56.67;21.80;;;14.40;99.90;;;;;;4710417;30;20061;-78
2022/04/01 00:06:35;;;;;;;72.90;20.08;;;14.40;99.90;;;;;;4725653;30;20147;-78
2022/04/01 00:09:03;;;;;;;65.40;20.83;;;14.50;99.90;;;;;;4713522;30;20056;-78
2022/04/01 00:11:31;;;;;;;61.72;21.88;;;14.50;99.90;;;;;;4713416;30;20061;-78
2022/04/01 00:13:58;;;;;;;55.13;22.25;;;14.50;99.90;;;;;;4706224;30;20061;-78
2022/04/01 00:16:26;;;;;;;86.40;21.27;;;14.50;99.90;;;;;;4714384;30;20103;-79
2022/04/01 00:18:56;;;;;;;56.75;19.98;;;14.40;99.90;;;;;;4705993;30;20052;-78
2022/04/01 00:21:24;;;;;;;56.45;19.38;;;14.50;99.90;;;;;;4716227;30;20052;-77
2022/04/01 00:23:55;;;;;;;64.82;21.40;;;14.50;99.90;;;;;;4729729;30;20139;-78
2022/04/01 00:26:22;;;;;;;67.07;21.20;;;14.40;99.90;;;;;;4715977;30;20881;-77
2022/04/01 00:28:50;;;;;;;63.97;25.02;;;14.40;99.90;;;;;;4729593;30;20095;-78
2022/04/01 00:31:18;;;;;;;72.32;23.52;;;14.40;99.90;;;;;;4730565;30;20072;-77
2022/04/01 00:33:46;;;;;;;55.97;21.33;;;14.40;99.90;;;;;;4729373;30;20072;-77
2022/04/01 00:36:14;;;;;;;81.25;21.13;;;14.40;99.90;;;;;;4740332;30;20415;-77
2022/04/01 00:38:41;;;;;;;54.03;19.95;;;14.30;99.90;;;;;;4700964;30;20064;-80
2022/04/01 00:41:09;;;;;;;67.47;22.30;;;14.30;99.90;;;;;;4696807;30;20115;-77
2022/04/01 00:43:37;;;;;;;95.13;22.90;;;14.40;99.90;;;;;;4725249;30;20496;-77
2022/04/01 00:46:04;;;;;;;61.60;20.40;;;14.30;99.90;;;;;;4726277;30;20040;-77
2022/04/01 00:48:32;;;;;;;69.72;21.10;;;14.30;99.90;;;;;;4718840;30;20509;-79
2022/04/01 00:50:59;;;;;;;84.43;23.52;;;14.30;99.90;;;;;;4693694;30;20053;-76
2022/04/01 00:53:27;;;;;;;63.75;21.67;;;14.30;99.90;;;;;;4716016;30;20056;-76
2022/04/01 00:55:55;;;;;;;64.78;21.08;;;14.30;99.90;;;;;;4729500;30;20152;-76
2022/04/01 00:58:23;;;;;;;77.63;22.23;;;14.30;99.90;;;;;;4731148;30;20790;-81
2022/04/01 01:00:51;;;;;;;67.72;19.63;;;14.30;99.90;;;;;;4720787;30;20401;-77
2022/04/01 01:03:20;;;;;;;62.92;19.52;;;14.40;99.90;;;;;;4730421;30;20052;-77
2022/04/01 01:05:48;;;;;;;75.10;23.55;;;14.30;99.90;;;;;;4730880;30;20509;-77
2022/04/01 01:08:17;;;;;;;73.95;23.08;;;14.30;99.90;;;;;;4716555;30;20053;-77
2022/04/01 01:10:45;;;;;;;73.53;19.77;;;14.30;99.90;;;;;;4732391;30;20420;-78
2022/04/01 01:13:13;;;;;;;65.13;20.90;;;14.30;99.90;;;;;;4720061;30;20088;-76
2022/04/01 01:15:41;;;;;;;66.00;22.10;;;14.30;99.90;;;;;;4734444;30;20060;-75
2022/04/01 01:18:09;;;;;;;65.82;20.85;;;14.20;99.90;;;;;;4735456;30;20057;-77
2022/04/01 01:20:37;;;;;;;74.97;22.50;;;14.20;99.90;;;;;;4733857;30;20076;-77
2022/04/01 01:23:06;;;;;;;72.88;21.02;;;14.20;99.90;;;;;;4719836;30;20155;-78
2022/04/01 01:25:36;;;;;;;70.65;19.40;;;14.20;99.90;;;;;;4719777;30;20139;-77
2022/04/01 01:28:06;;;;;;;86.32;22.42;;;14.20;99.90;;;;;;4719580;30;20492;-77
2022/04/01 01:30:33;;;;;;;71.03;20.52;;;14.20;99.90;;;;;;4720001;30;20067;-77
2022/04/01 01:33:01;;;;;;;65.00;19.05;;;14.10;99.90;;;;;;4719750;30;20175;-76
2022/04/01 01:35:29;;;;;;;77.50;23.75;;;14.10;99.90;;;;;;4734004;30;20061;-77
2022/04/01 01:37:57;;;;;;;69.75;20.45;;;14.10;99.90;;;;;;4734254;30;20543;-78
2022/04/01 01:40:25;;;;;;;54.33;20.65;;;14.10;99.90;;;;;;4733881;30;20053;-77
2022/04/01 01:42:53;;;;;;;63.80;20.90;;;14.10;99.90;;;;;;4735161;30;20049;-77
2022/04/01 01:45:20;;;;;;;65.05;21.27;;;14.10;99.90;;;;;;4705134;30;20061;-77
2022/04/01 01:47:48;;;;;;;56.58;21.02;;;14.20;99.90;;;;;;4734135;30;20048;-77
2022/04/01 01:55:48;;;;;;;78.47;23.73;;;14.10;99.90;;;;;;4733878;30;20052;-77
2022/04/01 01:58:16;;;;;;;66.13;20.05;;;14.10;99.90;;;;;;4718598;30;20056;-77
2022/04/01 02:00:44;;;;;;;68.47;19.90;;;14.20;99.90;;;;;;4732955;30;20072;-77
2022/04/01 02:03:12;;;;;;;77.65;19.55;;;14.10;99.90;;;;;;4733649;30;20475;-79
2022/04/01 02:05:40;;;;;;;66.20;21.15;;;14.10;99.90;;;;;;4718963;30;20071;-77
2022/04/01 02:08:08;;;;;;;55.92;17.42;;;14.00;99.90;;;;;;4734670;30;20489;-77
2022/04/01 02:10:35;;;;;;;71.32;21.52;;;14.00;99.90;;;;;;4733826;30;20065;-77
2022/04/01 02:13:03;;;;;;;73.30;21.38;;;14.00;99.90;;;;;;4732662;30;20056;-77
2022/04/01 02:15:33;;;;;;;75.43;21.10;;;14.00;99.90;;;;;;4730293;30;20057;-77
2022/04/01 02:18:02;;;;;;;66.90;19.88;;;14.00;99.90;;;;;;4687407;30;20734;-77
2022/04/01 02:20:31;;;;;;;65.70;17.95;;;14.00;99.90;;;;;;4715804;30;20045;-77
2022/04/01 02:22:59;;;;;;;61.22;19.90;;;14.00;99.90;;;;;;4700799;30;20059;-77
2022/04/01 02:25:27;;;;;;;58.95;21.27;;;14.00;99.90;;;;;;4701549;30;20056;-77
2022/04/01 02:27:56;;;;;;;75.57;19.45;;;14.00;99.90;;;;;;4715695;30;20601;-77
2022/04/01 02:30:25;;;;;;;69.93;21.10;;;14.00;99.90;;;;;;4715543;30;20052;-78
2022/04/01 02:33:18;;;;;;;69.25;22.08;;;14.00;99.90;;;;;;4702796;30;20053;-77
2022/04/01 02:35:52;;;;;;;62.42;22.73;;;13.90;99.90;;;;;;4701246;30;20060;-77
2022/04/01 02:38:20;;;;;;;62.83;19.58;;;13.90;99.90;;;;;;4715547;30;20056;-78
2022/04/01 02:40:47;;;;;;;62.45;21.70;;;13.90;99.90;;;;;;4715507;30;20059;-77
2022/04/01 02:43:15;;;;;;;61.30;20.08;;;13.90;99.90;;;;;;4715528;30;20053;-77
2022/04/01 02:45:45;;;;;;;70.35;19.77;;;13.90;99.90;;;;;;4700832;30;20061;-77
2022/04/01 02:48:14;;;;;;;70.07;22.80;;;13.90;99.90;;;;;;4716824;30;20143;-77
2022/04/01 02:51:02;;;;;;;76.68;22.70;;;14.00;99.90;;;;;;4716609;30;20053;-77
2022/04/01 02:53:30;;;;;;;50.80;17.92;;;14.00;99.90;;;;;;4715256;30;20057;-77
2022/04/01 02:55:57;;;;;;;64.43;20.92;;;14.00;99.90;;;;;;4700627;30;20053;-78
2022/04/01 02:58:25;;;;;;;61.42;19.23;;;14.00;99.90;;;;;;4700695;30;20053;-77
2022/04/01 03:00:53;;;;;;;66.50;20.40;;;13.90;99.90;;;;;;4715923;30;20049;-77
2022/04/01 03:03:23;;;;;;;64.43;22.05;;;13.90;99.90;;;;;;4701426;30;20060;-77
2022/04/01 03:05:50;;;;;;;57.20;18.33;;;13.90;99.90;;;;;;4715171;30;20122;-78
2022/04/01 03:08:18;;;;;;;70.80;23.23;;;13.80;99.90;;;;;;4701628;30;20383;-77
2022/04/01 03:10:46;;;;;;;69.80;21.55;;;13.80;99.90;;;;;;4686460;30;20151;-77
2022/04/01 03:13:13;;;;;;;69.95;21.88;;;13.70;99.90;;;;;;4714968;30;20111;-77
2022/04/01 03:16:02;;;;;;;70.63;22.90;;;13.70;99.90;;;;;;4718104;30;20068;-77
2022/04/01 03:18:44;;;;;;;64.50;22.42;;;13.70;99.90;;;;;;4714995;30;20103;-76
2022/04/01 03:21:11;;;;;;;65.88;21.17;;;13.70;99.90;;;;;;4714980;30;20582;-77
2022/04/01 03:23:44;;;;;;;76.63;23.60;;;13.80;99.90;;;;;;4715813;30;20171;-77
2022/04/01 03:26:16;;;;;;;62.35;19.15;;;13.80;99.90;;;;;;4701057;30;20061;-77
2022/04/01 03:28:59;;;;;;;73.47;22.02;;;13.80;99.90;;;;;;4716558;30;20073;-77
2022/04/01 03:31:28;;;;;;;50.40;20.15;;;13.90;99.90;;;;;;4700336;30;20057;-77
2022/04/01 03:33:58;;;;;;;65.28;21.00;;;13.80;99.90;;;;;;4714388;30;20057;-77
2022/04/01 03:36:25;;;;;;;73.18;23.67;;;13.90;99.90;;;;;;4728897;30;20081;-78
2022/04/01 03:38:54;;;;;;;63.33;23.40;;;13.90;99.90;;;;;;4715115;30;20053;-77
2022/04/01 03:41:30;;;;;;;61.38;19.42;;;13.90;99.90;;;;;;4714474;30;20053;-77
2022/04/01 03:44:00;;;;;;;69.10;22.33;;;14.00;99.90;;;;;;4729105;30;20045;-77
2022/04/01 03:46:55;;;;;;;56.25;20.17;;;14.00;99.90;;;;;;4729083;30;20068;-77
2022/04/01 03:49:23;;;;;;;66.40;19.83;;;13.90;99.90;;;;;;4714607;30;20045;-77
2022/04/01 03:51:54;;;;;;;48.92;18.33;;;13.90;99.90;;;;;;4714718;30;20154;-77
2022/04/01 03:54:25;;;;;;;50.97;18.42;;;13.90;99.90;;;;;;4700021;30;20060;-78
2022/04/01 03:57:02;;;;;;;59.72;19.90;;;13.90;99.90;;;;;;4730160;30;20048;-77
2022/04/01 03:59:52;;;;;;;57.65;19.52;;;13.90;99.90;;;;;;4732867;30;20196;-78
2022/04/01 04:02:47;;;;;;;55.40;19.80;;;13.90;99.90;;;;;;4722557;30;20063;-77
2022/04/01 04:05:22;;;;;;;54.10;19.55;;;13.90;99.90;;;;;;4699647;30;20061;-78
2022/04/01 04:07:51;;;;;;;54.20;20.17;;;13.80;99.90;;;;;;4699995;30;20084;-78
2022/04/01 04:10:27;;;;;;;85.43;25.10;;;13.80;99.90;;;;;;4713925;30;20431;-78
2022/04/01 04:13:15;;;;;;;58.70;17.77;;;13.80;99.90;;;;;;4726741;30;20049;-77
2022/04/01 04:15:56;;;;;;;57.00;21.48;;;13.80;99.90;;;;;;4713766;30;20093;-77
2022/04/01 04:18:33;;;;;;;58.92;17.92;;;13.70;99.90;;;;;;4699791;30;20069;-77
2022/04/01 04:21:06;;;;;;;;;;;13.60;99.90;;;;;;4700143;30;20049;-78
2022/04/01 04:23:43;;;;;;;61.75;18.00;;;13.60;99.90;;;;;;4699666;30;19927;-77
2022/04/01 04:26:52;;;;;;;60.38;19.95;;;13.60;99.90;;;;;;4713854;30;20057;-77
2022/04/01 04:29:25;;;;;;;53.63;18.70;;;13.50;99.90;;;;;;4686567;30;20059;-78
2022/04/01 04:32:05;;;;;;;62.60;20.13;;;13.60;99.90;;;;;;4700850;30;20045;-78
2022/04/01 04:34:41;;;;;;;57.50;19.15;;;13.60;99.90;;;;;;4699239;30;20060;-79
2022/04/01 04:37:13;;;;;;;77.60;22.77;;;13.60;99.90;;;;;;4699555;30;20072;-77
2022/04/01 04:39:50;;;;;;;73.10;20.63;;;13.60;99.90;;;;;;4713915;30;20142;-78
2022/04/01 04:42:18;;;;;;;64.68;18.90;;;13.60;99.90;;;;;;4685148;30;20049;-78
2022/04/01 04:44:46;;;;;;;59.40;19.35;;;13.60;99.90;;;;;;4699506;30;20049;-78
2022/04/01 04:47:25;;;;;;;56.55;18.48;;;13.50;99.90;;;;;;4729689;30;20056;-77
2022/04/01 04:49:57;;;;;;;57.17;19.00;;;13.60;99.90;;;;;;4706336;30;20064;-78
2022/04/01 04:52:34;;;;;;;58.95;19.95;;;13.50;99.90;;;;;;4720212;30;20070;-78
2022/04/01 04:55:06;;;;;;;49.20;19.60;;;13.50;99.90;;;;;;4720400;30;20052;-77
2022/04/01 04:57:43;;;;;;;50.72;19.42;;;13.50;99.90;;;;;;4720015;30;20057;-78
2022/04/01 05:00:19;;;;;;;56.92;18.20;;;13.50;99.90;;;;;;4705959;30;20067;-78
2022/04/01 05:03:23;;;;;;;53.20;16.80;;;13.50;99.90;;;;;;4735077;30;20045;-78
2022/04/01 05:05:54;;;;;;;64.70;18.60;;;13.50;99.90;;;;;;4720115;30;20138;-78
2022/04/01 05:08:27;;;;;;;53.60;16.05;;;13.50;99.90;;;;;;4720615;30;20064;-78
2022/04/01 05:11:33;;;;;;;58.63;20.05;;;13.60;99.90;;;;;;4724543;30;20075;-79
2022/04/01 05:14:04;;;;;;;55.83;16.95;;;13.60;99.90;;;;;;4705564;30;20500;-78
2022/04/01 05:16:55;;;;;;;59.70;18.13;;;13.60;99.90;;;;;;4735762;30;20045;-77
2022/04/01 05:19:30;;;;;;;58.13;17.10;;;13.60;99.90;;;;;;4720460;30;20048;-78
2022/04/01 05:22:05;;;;;;;47.22;17.05;;;13.60;99.90;;;;;;4734555;30;20116;-77
2022/04/01 05:24:53;;;;;;;42.55;15.85;;;13.60;99.90;;;;;;4733646;30;20159;-79
2022/04/01 05:27:28;;;;;;;43.92;15.32;;;13.60;99.90;;;;;;4719770;30;20070;-78
2022/04/01 05:30:25;;;;;;;52.20;15.20;;;13.60;99.90;;;;;;4715415;30;20469;-78
2022/04/01 05:33:15;;;;;;;47.78;15.85;;;13.70;99.90;;;;;;4730705;30;20056;-78
2022/04/01 05:35:51;;;;;;;53.80;15.90;;;14.00;99.90;;;;;;4734412;30;20080;-78
2022/04/01 05:38:22;;;;;;;40.10;15.57;;;14.20;99.90;;;;;;4734247;30;20065;-77
2022/04/01 05:40:50;;;;;;;36.42;14.95;;;14.30;99.90;;;;;;4733605;30;20114;-77
2022/04/01 05:43:22;;;;;;;37.25;14.07;;;14.40;99.90;;;;;;4733392;30;20053;-78
2022/04/01 05:46:23;;;;;;;31.98;11.70;;;14.50;99.90;;;;;;4724030;30;20079;-77
2022/04/01 05:48:53;;;;;;;34.50;13.18;;;14.70;99.90;;;;;;4734122;30;20496;-78
2022/04/01 05:51:22;;;;;;;37.65;14.10;;;15.00;99.90;;;;;;4733900;30;20060;-78
2022/04/01 05:53:51;;;;;;;28.85;11.80;;;15.10;99.90;;;;;;4733886;30;20508;-77
2022/04/01 05:56:21;;;;;;;27.38;12.20;;;15.40;99.90;;;;;;4704557;30;20107;-77
2022/04/01 05:58:49;;;;;;;33.88;11.13;;;15.50;99.90;;;;;;4705023;30;20048;-78
2022/04/01 06:01:45;;;;;;;29.25;9.63;;;15.70;99.90;;;;;;4719880;30;20050;-78
2022/04/01 06:04:24;;;;;;;28.38;10.02;;;15.90;99.90;;;;;;4734675;30;20135;-77
2022/04/01 06:07:21;;;;;;;39.40;9.82;;;16.00;99.90;;;;;;4719006;30;20056;-77
2022/04/01 06:10:05;;;;;;;19.40;9.10;;;16.20;99.90;;;;;;4705562;30;20491;-78
2022/04/01 06:12:57;;;;;;;21.40;6.82;;;16.40;99.90;;;;;;4733452;30;20056;-77
2022/04/01 06:16:02;;;;;;;18.60;6.50;;;16.70;99.90;;;;;;4721025;30;20088;-77
2022/04/01 06:19:24;;;;;;;18.35;6.60;;;17.00;99.90;;;;;;4720170;30;20557;-77
2022/04/01 06:22:03;;;;;;;11.60;5.20;;;17.30;99.90;;;;;;4719282;30;20102;-78
2022/04/01 06:24:50;;;;;;;13.50;5.75;;;17.30;99.90;;;;;;4699411;30;20077;-78
2022/04/01 06:27:42;;;;;;;18.65;5.78;;;17.30;99.90;;;;;;4716076;30;20535;-78
2022/04/01 06:30:12;;;;;;;18.67;4.05;;;17.10;99.90;;;;;;4701365;30;20513;-78
2022/04/01 06:32:52;;;;;;;17.70;6.28;;;16.90;99.90;;;;;;4687347;30;20060;-77
2022/04/01 06:35:44;;;;;;;11.48;4.07;;;16.70;99.90;;;;;;4715984;30;20493;-77
2022/04/01 06:38:48;;;;;;;13.65;6.07;;;16.30;99.90;;;;;;4715619;30;20053;-77
2022/04/01 06:41:26;;;;;;;9.57;3.92;;;16.40;99.90;;;;;;4730260;30;20065;-79
2022/04/01 06:44:20;;;;;;;13.20;3.95;;;16.40;99.90;;;;;;4714693;30;20053;-77
2022/04/01 06:47:07;;;;;;;9.80;3.63;;;16.40;99.90;;;;;;4715760;30;20067;-78
2022/04/01 06:49:34;;;;;;;6.82;3.63;;;16.40;99.90;;;;;;4701303;30;20382;-77
2022/04/01 06:52:21;;;;;;;17.10;3.90;;;16.40;99.90;;;;;;4716068;30;20119;-77
2022/04/01 06:55:08;;;;;;;14.70;5.25;;;16.40;99.90;;;;;;4715575;30;20420;-78
2022/04/01 06:58:02;;;;;;;13.63;4.63;;;16.50;99.90;;;;;;4702118;30;20509;-77
2022/04/01 07:00:30;;;;;;;12.93;3.60;;;16.40;99.90;;;;;;4715529;30;20512;-77
2022/04/01 07:02:57;;;;;;;12.40;4.30;;;16.40;99.90;;;;;;4715485;30;20421;-79
2022/04/01 07:05:25;;;;;;;21.58;5.15;;;16.40;99.90;;;;;;4715422;30;20128;-78
2022/04/01 07:07:53;;;;;;;14.05;4.38;;;16.40;99.90;;;;;;4715197;30;20140;-78
2022/04/01 07:10:21;;;;;;;13.05;5.05;;;16.40;99.90;;;;;;4700539;30;20152;-79
2022/04/01 07:12:49;;;;;;;18.45;5.78;;;16.40;99.90;;;;;;4715907;30;20760;-80
2022/04/01 07:15:17;;;;;;;14.80;5.28;;;16.30;99.90;;;;;;4713205;30;20084;-80
2022/04/01 07:17:48;;;;;;;11.88;5.78;;;16.30;99.90;;;;;;4711531;30;20114;-80
2022/04/01 07:20:16;;;;;;;13.98;5.60;;;16.40;99.90;;;;;;4708518;30;20053;-79
2022/04/01 07:22:48;;;;;;;19.13;5.60;;;16.40;99.90;;;;;;4703282;30;20072;-79
2022/04/01 07:25:16;;;;;;;12.68;6.10;;;16.60;99.90;;;;;;4714649;30;20152;-78
2022/04/01 07:27:44;;;;;;;17.08;7.00;;;16.60;99.90;;;;;;4735337;30;20074;-78
2022/04/01 07:30:13;;;;;;;13.52;6.10;;;16.60;99.90;;;;;;4736003;30;20130;-79
2022/04/01 07:32:41;;;;;;;12.70;5.13;;;16.60;99.90;;;;;;4732566;30;20151;-78
2022/04/01 07:35:11;;;;;;;18.33;5.50;;;16.60;99.90;;;;;;4710776;30;20148;-78
2022/04/01 07:37:39;;;;;;;15.25;5.47;;;16.60;99.90;;;;;;4715134;30;20103;-78
2022/04/01 07:40:24;;;;;;;25.00;6.50;;;16.60;99.90;;;;;;4714812;30;20136;-78
2022/04/01 07:42:53;;;;;;;14.32;5.20;;;16.70;99.90;;;;;;4700321;30;20147;-77
2022/04/01 07:45:21;;;;;;;19.70;6.85;;;16.70;99.90;;;;;;4714598;30;20501;-78
2022/04/01 07:47:52;;;;;;;21.90;5.95;;;16.60;99.90;;;;;;4714669;30;20049;-78
2022/04/01 07:50:21;;;;;;;17.65;6.80;;;16.60;99.90;;;;;;4714615;30;20057;-78
2022/04/01 07:52:48;;;;;;;19.05;6.88;;;16.60;99.90;;;;;;4700251;30;20061;-79
2022/04/01 07:55:17;;;;;;;25.20;8.20;;;16.70;99.90;;;;;;4714640;30;20155;-77
2022/04/01 07:57:47;;;;;;;27.70;6.85;;;16.60;99.90;;;;;;4715648;30;20075;-78
2022/04/01 08:00:17;;;;;;;23.10;8.70;;;16.50;99.90;;;;;;4714452;30;20096;-77
2022/04/01 08:02:45;;;;;;;18.55;5.18;;;16.50;99.90;;;;;;4715520;30;20140;-77
2022/04/01 08:05:16;;;;;;;14.75;6.88;;;16.60;99.90;;;;;;4715708;30;20064;-78
2022/04/01 08:07:43;;;;;;;16.05;6.15;;;16.60;99.90;;;;;;4721954;30;20060;-77
2022/04/01 08:10:11;;;;;;;15.20;5.80;;;16.60;99.90;;;;;;4717094;30;20057;-78
2022/04/01 08:12:42;;;;;;;21.05;6.45;;;16.60;99.90;;;;;;4732807;30;20102;-79
2022/04/01 08:15:11;;;;;;;19.73;6.50;;;16.60;99.90;;;;;;4732881;30;20064;-78
2022/04/01 08:17:39;;;;;;;20.25;6.85;;;16.70;99.90;;;;;;4731550;30;20503;-77
2022/04/01 08:20:08;;;;;;;13.80;6.80;;;16.70;99.90;;;;;;4716545;30;20060;-78
2022/04/01 08:22:36;;;;;;;16.27;6.75;;;16.70;99.90;;;;;;4702117;30;20060;-77
2022/04/01 08:25:05;;;;;;;21.65;7.43;;;16.70;99.90;;;;;;4732517;30;20056;-78
2022/04/01 08:27:33;;;;;;;15.82;6.13;;;16.90;99.90;;;;;;4717363;30;20053;-78
2022/04/01 08:30:01;;;;;;;16.83;6.20;;;17.00;99.90;;;;;;4717120;30;20052;-78
2022/04/01 08:32:30;;;;;;;25.40;7.10;;;17.20;99.90;;;;;;4732983;30;20147;-79
2022/04/01 08:34:58;;;;;;;12.30;5.57;;;17.40;99.90;;;;;;4731466;30;20083;-79
2022/04/01 08:37:26;;;;;;;19.25;8.45;;;17.60;99.90;;;;;;4731583;30;20130;-78
2022/04/01 08:39:53;;;;;;;21.25;5.95;;;17.90;99.90;;;;;;4732530;30;20385;-78
2022/04/01 08:42:21;;;;;;;23.58;7.15;;;17.90;99.90;;;;;;4717047;30;20049;-77
2022/04/01 08:44:50;;;;;;;15.05;5.03;;;17.90;99.90;;;;;;4717291;30;20056;-77
2022/04/01 08:47:18;;;;;;;18.65;6.85;;;18.00;99.90;;;;;;4717005;30;20087;-77
2022/04/01 08:49:46;;;;;;;20.48;6.50;;;18.10;99.90;;;;;;4731374;30;20059;-79
2022/04/01 08:52:14;;;;;;;19.88;6.22;;;18.20;99.90;;;;;;4731262;30;20527;-78
2022/04/01 08:54:42;;;;;;;17.88;5.40;;;18.20;99.90;;;;;;4717016;30;20045;-79
2022/04/01 08:57:10;;;;;;;23.92;6.95;;;18.20;99.90;;;;;;4732416;30;20052;-78
2022/04/01 08:59:38;;;;;;;14.63;5.63;;;18.10;99.90;;;;;;4731372;30;20169;-78
2022/04/01 09:02:09;;;;;;;19.73;6.63;;;18.20;99.90;;;;;;4730970;30;20064;-78
2022/04/01 09:04:37;;;;;;;16.10;6.07;;;18.10;99.90;;;;;;4717126;30;20734;-80
2022/04/01 09:07:15;;;;;;;11.90;4.88;;;18.10;99.90;;;;;;4689375;30;20060;-79
2022/04/01 09:09:43;;;;;;;14.60;5.70;;;18.10;99.90;;;;;;4713912;30;20489;-78
2022/04/01 09:12:16;;;;;;;17.38;5.10;;;18.10;99.90;;;;;;4699325;30;20061;-78
2022/04/01 09:14:52;;;;;;;16.27;5.97;;;17.90;99.90;;;;;;4713488;30;20064;-77
2022/04/01 09:17:20;;;;;;;;;;;18.10;99.90;;;;;;4699343;30;20057;-78
2022/04/01 09:20:01;;;;;;;14.00;6.45;;;18.00;99.90;;;;;;4685087;30;20017;-78
2022/04/01 09:22:29;;;;;;;20.60;8.15;;;18.20;99.90;;;;;;4699571;30;20045;-78
2022/04/01 09:25:04;;;;;;;14.18;5.25;;;18.40;99.90;;;;;;4713587;30;20057;-78
2022/04/01 09:27:40;;;;;;;20.15;5.68;;;18.40;99.90;;;;;;4699093;30;20169;-79
2022/04/01 09:30:11;;;;;;;11.10;4.70;;;18.40;99.90;;;;;;4713311;30;20151;-78
2022/04/01 09:32:41;;;;;;;18.00;5.95;;;18.50;99.90;;;;;;4700699;30;20057;-77
2022/04/01 09:35:11;;;;;;;13.52;5.32;;;18.50;99.90;;;;;;4716942;30;20061;-78
2022/04/01 09:37:43;;;;;;;17.15;4.68;;;18.70;99.90;;;;;;4716903;30;20045;-78
2022/04/01 09:40:14;;;;;;;16.27;5.45;;;18.90;99.90;;;;;;4715628;30;20041;-78
2022/04/01 09:43:01;;;;;;;35.92;8.57;;;18.80;99.90;;;;;;4731636;30;20630;-79
2022/04/01 09:45:32;;;;;;;13.98;7.60;;;18.50;99.90;;;;;;4725346;30;20057;-78
2022/04/01 09:48:13;;;;;;;35.10;8.25;;;18.30;99.90;;;;;;4726713;30;20131;-77
2022/04/01 09:50:43;;;;;;;22.27;6.80;;;18.40;99.90;;;;;;4718487;30;20048;-78
2022/04/01 09:53:17;;;;;;;19.98;6.05;;;18.40;99.90;;;;;;4716384;30;20505;-78
2022/04/01 09:55:47;;;;;;;15.15;6.30;;;18.10;99.90;;;;;;4702196;30;20092;-79
2022/04/01 09:58:16;;;;;;;21.85;6.85;;;17.90;99.90;;;;;;4731206;30;20477;-79
2022/04/01 10:00:45;;;;;;;18.85;7.53;;;17.90;99.90;;;;;;4729189;30;20057;-78
2022/04/01 10:03:15;;;;;;;20.10;7.30;;;17.80;99.90;;;;;;4710200;30;20092;-78
2022/04/01 10:05:43;;;;;;;21.20;6.00;;;17.70;99.90;;;;;;4707205;30;20060;-79
2022/04/01 10:08:12;;;;;;;20.42;6.90;;;17.60;99.90;;;;;;4717394;30;20060;-79
2022/04/01 10:10:43;;;;;;;20.55;6.45;;;17.50;99.90;;;;;;4703298;30;20059;-78
2022/04/01 10:13:16;;;;;;;16.85;6.68;;;17.50;99.90;;;;;;4725128;30;20048;-79
2022/04/01 10:15:44;;;;;;;14.02;6.32;;;17.70;99.90;;;;;;4718628;30;20084;-78
2022/04/01 10:18:19;;;;;;;12.75;4.93;;;17.90;99.90;;;;;;4725082;30;20873;-78
2022/04/01 10:20:47;;;;;;;17.77;8.40;;;18.10;99.90;;;;;;4727096;30;20049;-79
2022/04/01 10:23:15;;;;;;;12.55;3.95;;;18.10;99.90;;;;;;4718273;30;20044;-78
2022/04/01 10:25:52;;;;;;;13.50;4.97;;;18.30;99.90;;;;;;4732995;30;20056;-78
2022/04/01 10:28:21;;;;;;;17.75;5.93;;;18.30;99.90;;;;;;4732415;30;20067;-79
2022/04/01 10:30:58;;;;;;;12.50;6.15;;;18.20;99.90;;;;;;4726850;30;20068;-79
2022/04/01 10:33:31;;;;;;;18.08;6.95;;;18.20;99.90;;;;;;4698170;30;20057;-80
2022/04/01 10:35:59;;;;;;;27.40;8.80;;;18.30;99.90;;;;;;4727263;30;20065;-78
2022/04/01 10:38:33;;;;;;;19.58;7.18;;;18.40;99.90;;;;;;4733452;30;20130;-78
2022/04/01 10:41:12;;;;;;;13.77;7.03;;;18.60;99.90;;;;;;4725899;30;20045;-79
2022/04/01 10:43:42;;;;;;;17.73;6.55;;;18.70;99.90;;;;;;4725131;30;20049;-78
2022/04/01 10:46:14;;;;;;;14.88;5.82;;;18.70;99.90;;;;;;4699275;30;20126;-78
2022/04/01 10:52:13;;;;;;;6.30;3.55;;;18.30;99.90;;;;;;4729034;30;20040;-79
2022/04/01 10:54:43;;;;;;;7.68;3.50;;;18.50;99.90;;;;;;4718099;30;20091;-79
2022/04/01 10:57:27;;;;;;;9.63;3.40;;;18.70;99.90;;;;;;4717090;30;20052;-78
2022/04/01 10:59:59;;;;;;;7.28;3.85;;;19.00;99.90;;;;;;4716953;30;20143;-78
2022/04/01 11:02:27;;;;;;;13.40;4.13;;;19.10;99.90;;;;;;4718009;30;20110;-79
2022/04/01 11:04:55;;;;;;;9.35;3.55;;;18.90;99.90;;;;;;4716543;30;20052;-77
2022/04/01 11:07:22;;;;;;;6.35;3.08;;;18.80;99.90;;;;;;4700223;30;20118;-78
2022/04/01 11:09:58;;;;;;;11.85;4.53;;;18.80;99.90;;;;;;4708011;30;20053;-78
2022/04/01 11:12:31;;;;;;;9.75;3.78;;;19.00;99.90;;;;;;4699801;30;20183;-79
2022/04/01 11:15:02;;;;;;;9.43;3.97;;;19.10;99.90;;;;;;4731476;30;20076;-78
2022/04/01 11:17:35;;;;;;;6.25;3.45;;;19.30;99.90;;;;;;4715437;30;20057;-78
2022/04/01 11:20:10;;;;;;;8.52;4.60;;;19.40;99.90;;;;;;4717049;30;20106;-79
2022/04/01 11:22:53;;;;;;;7.40;3.67;;;19.50;99.90;;;;;;4724560;30;20524;-78
2022/04/01 11:25:32;;;;;;;14.93;4.43;;;19.30;99.90;;;;;;4720839;30;20048;-79
2022/04/01 11:28:10;;;;;;;5.10;3.15;;;19.50;99.90;;;;;;4732177;30;20045;-76
2022/04/01 11:30:41;;;;;;;11.73;3.88;;;19.50;99.90;;;;;;4714156;30;20057;-79
2022/04/01 11:33:13;;;;;;;8.57;4.22;;;19.30;99.90;;;;;;4705567;30;20114;-77
2022/04/01 11:35:46;;;;;;;11.35;4.82;;;19.30;99.90;;;;;;4725179;30;20056;-78
2022/04/01 11:38:17;;;;;;;11.38;4.90;;;19.30;99.90;;;;;;4729936;30;20124;-77
2022/04/01 11:40:47;;;;;;;12.32;3.92;;;19.30;99.90;;;;;;4729627;30;20055;-78
2022/04/01 11:43:19;;;;;;;11.43;4.38;;;19.20;99.90;;;;;;4710528;30;20071;-77
2022/04/01 11:45:57;;;;;;;7.30;3.92;;;19.20;99.90;;;;;;4728542;30;20106;-77
2022/04/01 11:48:38;;;;;;;9.80;4.75;;;19.20;99.90;;;;;;4718702;30;20102;-78
2022/04/01 11:51:09;;;;;;;6.55;3.88;;;19.20;99.90;;;;;;4726865;30;20058;-76
2022/04/01 11:53:49;;;;;;;14.80;5.22;;;19.20;99.90;;;;;;4713104;30;20117;-76
2022/04/01 11:56:19;;;;;;;7.60;3.85;;;19.20;99.90;;;;;;4724839;30;20089;-76
2022/04/01 11:58:47;;;;;;;7.03;3.95;;;19.00;99.90;;;;;;4728944;30;20516;-76
2022/04/01 12:01:16;;;;;;;11.35;4.53;;;18.80;99.90;;;;;;4696905;30;20509;-77
2022/04/01 12:03:45;;;;;;;14.05;4.50;;;18.50;99.90;;;;;;4727292;30;20083;-77
2022/04/01 12:09:03;;;;;;;12.05;4.57;;;18.40;99.90;;;;;;4715524;30;20052;-77
2022/04/01 12:11:42;;;;;;;12.05;4.97;;;18.20;99.90;;;;;;4703474;30;20138;-77
2022/04/01 12:14:11;;;;;;;11.25;4.57;;;18.10;99.90;;;;;;4721744;30;20056;-77
2022/04/01 12:16:40;;;;;;;13.55;4.50;;;18.10;99.90;;;;;;4715877;30;20080;-77
2022/04/01 12:19:16;;;;;;;8.45;3.25;;;18.20;99.90;;;;;;4716718;30;20117;-77
2022/04/01 12:21:47;;;;;;;6.63;2.70;;;18.30;99.80;;;;;;4706341;30;20510;-79
2022/04/01 12:24:15;;;;;;;10.18;3.30;;;18.30;98.70;;;;;;4710796;30;20326;-76
2022/04/01 12:26:44;;;;;;;5.00;2.80;;;18.40;98.70;;;;;;4729028;30;20456;-76
2022/04/01 12:29:23;;;;;;;8.02;3.05;;;18.50;98.10;;;;;;4721790;30;20053;-77
2022/04/01 12:31:56;;;;;;;8.00;3.17;;;18.30;98.00;;;;;;4725791;30;20044;-77
2022/04/01 12:34:25;;;;;;;8.18;3.28;;;18.30;98.30;;;;;;4720658;30;20061;-78
2022/04/01 12:37:02;;;;;;;11.75;3.95;;;18.30;98.70;;;;;;4734083;30;20178;-77
2022/04/01 12:39:35;;;;;;;12.65;4.28;;;18.30;99.20;;;;;;4724048;30;20063;-77
2022/04/01 12:42:09;;;;;;;8.75;3.22;;;18.50;99.40;;;;;;4727094;30;20081;-78
2022/04/01 12:44:41;;;;;;;5.25;3.47;;;18.70;98.80;;;;;;4706918;30;20078;-78
2022/04/01 12:47:09;;;;;;;8.13;2.75;;;18.80;98.70;;;;;;4696357;30;20058;-78
2022/04/01 12:49:42;;;;;;;6.07;2.72;;;18.70;98.60;;;;;;4714318;30;20115;-78
2022/04/01 12:52:18;;;;;;;6.85;2.78;;;18.80;99.20;;;;;;4713395;30;20541;-78
2022/04/01 12:54:50;;;;;;;7.45;2.80;;;18.70;99.20;;;;;;4698929;30;20151;-77
2022/04/01 12:57:20;;;;;;;10.65;3.85;;;18.80;99.20;;;;;;4713601;30;20060;-78
2022/04/01 12:59:49;;;;;;;9.20;2.97;;;18.70;98.60;;;;;;4713360;30;20049;-77
2022/04/01 13:02:20;;;;;;;6.15;3.30;;;18.70;99.20;;;;;;4683134;30;20071;-77
2022/04/01 13:04:56;;;;;;;8.07;2.83;;;18.70;98.80;;;;;;4683363;30;20160;-78
2022/04/01 13:07:34;;;;;;;9.35;4.13;;;18.70;99.10;;;;;;4697438;30;20061;-78
2022/04/01 13:10:07;;;;;;;9.30;3.25;;;18.80;98.70;;;;;;4700609;30;20144;-78
2022/04/01 13:12:40;;;;;;;6.22;3.05;;;18.60;98.60;;;;;;4716509;30;20061;-78
2022/04/01 13:15:19;;;;;;;7.18;2.50;;;18.60;98.80;;;;;;4686919;30;20593;-78